Time;durP1;ratioP1;P1;durP2;ratioP2;P2;SDS_P1;SDS_P2;PMS_P1;PMS_P2;Temp;Humidity;BMP_temperature;BMP_pressure;BME280_temperature;BME280_humidity;BME280_pressure;Samples;Min_cycle;Max_cycle;Signal;HPM_P1;HPM_P2
2021/03/26 00:01:41;;;;;;;11.40;7.78;;;6.10;99.90;;;;;;5048063;28;20286;-75
2021/03/26 00:04:11;;;;;;;8.38;7.40;;;6.10;99.90;;;;;;5048642;28;20201;-74
2021/03/26 00:06:39;;;;;;;10.50;7.55;;;6.10;99.90;;;;;;5049064;28;20189;-75
2021/03/26 00:09:08;;;;;;;11.20;8.60;;;6.20;99.90;;;;;;5048395;28;20205;-75
2021/03/26 00:11:35;;;;;;;8.88;7.88;;;6.20;99.90;;;;;;5048591;28;20252;-75
2021/03/26 00:14:02;;;;;;;15.15;7.00;;;6.20;99.90;;;;;;5048891;28;20713;-75
2021/03/26 00:16:28;;;;;;;9.30;6.95;;;6.30;99.90;;;;;;5048532;28;20213;-75
2021/03/26 00:18:54;;;;;;;9.30;6.43;;;6.30;99.90;;;;;;5048591;28;20258;-74
2021/03/26 00:21:23;;;;;;;8.95;7.15;;;6.40;99.90;;;;;;5049008;28;20221;-75
2021/03/26 00:23:49;;;;;;;10.55;7.65;;;6.40;99.90;;;;;;5049415;28;20217;-75
2021/03/26 00:26:16;;;;;;;10.65;8.05;;;6.40;99.90;;;;;;5049329;28;20209;-75
2021/03/26 00:28:42;;;;;;;12.85;8.05;;;6.40;99.90;;;;;;5048519;28;20211;-75
2021/03/26 00:31:09;;;;;;;14.95;8.68;;;6.50;99.90;;;;;;5048928;28;20576;-75
2021/03/26 00:33:35;;;;;;;11.63;8.10;;;6.50;99.90;;;;;;5048942;28;20209;-74
2021/03/26 00:36:02;;;;;;;11.73;7.78;;;6.40;99.90;;;;;;5049214;28;20262;-76
2021/03/26 00:38:29;;;;;;;8.68;7.00;;;6.40;99.90;;;;;;5048452;28;20692;-75
2021/03/26 00:40:55;;;;;;;10.63;7.25;;;6.30;99.90;;;;;;5048523;28;20201;-76
2021/03/26 00:43:22;;;;;;;9.23;7.63;;;6.30;99.90;;;;;;5049028;28;20197;-74
2021/03/26 00:45:49;;;;;;;11.70;8.43;;;6.20;99.90;;;;;;5049201;28;20202;-74
2021/03/26 00:48:17;;;;;;;9.02;7.90;;;6.20;99.90;;;;;;5048856;28;20197;-74
2021/03/26 00:50:45;;;;;;;12.07;8.63;;;6.20;99.90;;;;;;5048970;28;20216;-74
2021/03/26 00:53:14;;;;;;;8.88;7.53;;;6.00;99.90;;;;;;5049367;28;20205;-74
2021/03/26 00:55:41;;;;;;;11.50;8.25;;;6.00;99.90;;;;;;5049775;28;20193;-74
2021/03/26 00:58:07;;;;;;;10.88;7.47;;;6.00;99.90;;;;;;5048873;28;20252;-73
2021/03/26 01:00:36;;;;;;;12.93;8.48;;;6.00;99.90;;;;;;5047757;28;20742;-74
2021/03/26 01:03:03;;;;;;;14.02;7.50;;;6.00;99.90;;;;;;5049049;28;20275;-75
2021/03/26 01:05:32;;;;;;;9.02;7.22;;;6.00;99.90;;;;;;5048499;28;20667;-75
2021/03/26 01:07:58;;;;;;;11.27;7.57;;;6.10;99.90;;;;;;5048920;28;20192;-75
2021/03/26 01:10:27;;;;;;;9.68;7.60;;;6.00;99.90;;;;;;5048299;28;20699;-74
2021/03/26 01:12:55;;;;;;;10.05;7.20;;;6.00;99.90;;;;;;5048469;28;20567;-74
2021/03/26 01:15:23;;;;;;;8.07;6.38;;;6.00;99.90;;;;;;5048998;28;20205;-75
2021/03/26 01:17:50;;;;;;;9.63;7.05;;;6.00;99.90;;;;;;5048885;28;20587;-75
2021/03/26 01:20:21;;;;;;;11.27;7.60;;;5.90;99.90;;;;;;5048642;28;20250;-76
2021/03/26 01:22:47;;;;;;;11.45;8.05;;;6.00;99.90;;;;;;5048651;28;20241;-74
2021/03/26 01:25:17;;;;;;;9.90;7.53;;;6.00;99.90;;;;;;5049035;28;20682;-75
2021/03/26 01:27:44;;;;;;;9.20;7.45;;;6.00;99.90;;;;;;5052478;28;20260;-75
2021/03/26 01:30:13;;;;;;;12.23;7.78;;;6.10;99.90;;;;;;5048515;28;20304;-75
2021/03/26 01:32:39;;;;;;;10.60;6.78;;;6.20;99.90;;;;;;5049622;28;20217;-76
2021/03/26 01:35:08;;;;;;;13.02;8.32;;;6.30;99.90;;;;;;5048896;28;20480;-76
2021/03/26 01:37:34;;;;;;;12.77;8.40;;;6.50;99.90;;;;;;5049048;28;20225;-76
2021/03/26 01:40:01;;;;;;;10.90;8.50;;;6.60;99.90;;;;;;5048494;28;20220;-75
2021/03/26 01:42:30;;;;;;;8.35;7.35;;;6.70;99.90;;;;;;5048972;28;20585;-76
2021/03/26 01:44:57;;;;;;;9.18;7.20;;;6.80;99.90;;;;;;5048712;28;20203;-73
2021/03/26 01:47:25;;;;;;;11.25;7.70;;;6.80;99.90;;;;;;5048692;28;20576;-75
2021/03/26 01:49:51;;;;;;;10.30;7.43;;;6.80;99.90;;;;;;5048430;28;20212;-75
2021/03/26 01:52:18;;;;;;;9.30;7.22;;;6.80;99.90;;;;;;5048633;28;20228;-75
2021/03/26 01:54:44;;;;;;;12.15;7.88;;;6.90;99.90;;;;;;5048779;28;20571;-76
2021/03/26 01:57:11;;;;;;;10.02;8.00;;;6.80;99.90;;;;;;5048742;28;20278;-76
2021/03/26 01:59:39;;;;;;;13.55;8.23;;;6.90;99.90;;;;;;5047962;28;20211;-75
2021/03/26 02:02:09;;;;;;;8.23;6.60;;;6.90;99.90;;;;;;5048948;28;20982;-74
2021/03/26 02:04:40;;;;;;;8.80;7.32;;;6.80;99.90;;;;;;5049381;28;20263;-75
2021/03/26 02:07:06;;;;;;;10.13;7.55;;;6.80;99.90;;;;;;5049105;28;20205;-75
2021/03/26 02:09:39;;;;;;;8.73;6.72;;;6.70;99.90;;;;;;5047692;28;20236;-75
2021/03/26 02:12:08;;;;;;;8.80;6.88;;;6.60;99.90;;;;;;5048747;28;20233;-74
2021/03/26 02:14:38;;;;;;;12.25;8.27;;;6.50;99.90;;;;;;5048223;28;20734;-76
2021/03/26 02:17:06;;;;;;;13.80;7.30;;;6.50;99.90;;;;;;5048352;28;20221;-76
2021/03/26 02:19:38;;;;;;;9.38;6.95;;;6.50;99.90;;;;;;5047924;28;20233;-76
2021/03/26 02:22:05;;;;;;;9.02;7.10;;;6.60;99.90;;;;;;5048201;28;20221;-76
2021/03/26 02:24:32;;;;;;;9.40;6.95;;;6.70;99.90;;;;;;5049290;28;20205;-76
2021/03/26 02:27:10;;;;;;;11.65;7.30;;;6.80;99.90;;;;;;5051941;28;20193;-76
2021/03/26 02:29:37;;;;;;;9.30;6.65;;;6.90;99.90;;;;;;5051276;28;20208;-75
2021/03/26 02:32:08;;;;;;;11.07;7.07;;;6.90;99.90;;;;;;5051851;28;20645;-76
2021/03/26 02:34:35;;;;;;;10.43;8.13;;;7.00;99.90;;;;;;5051488;28;20216;-76
2021/03/26 02:37:04;;;;;;;14.15;6.95;;;7.00;99.90;;;;;;5051887;28;20231;-76
2021/03/26 02:39:37;;;;;;;11.00;7.43;;;7.10;99.90;;;;;;5051209;28;20208;-76
2021/03/26 02:42:09;;;;;;;9.85;7.75;;;7.10;99.90;;;;;;5051975;28;20271;-76
2021/03/26 02:44:50;;;;;;;8.25;7.05;;;7.10;99.90;;;;;;5051246;28;20201;-75
2021/03/26 02:47:28;;;;;;;11.93;8.25;;;7.10;99.90;;;;;;5051979;28;20205;-76
2021/03/26 02:50:07;;;;;;;9.93;7.65;;;7.10;99.90;;;;;;5050991;28;20215;-76
2021/03/26 02:52:39;;;;;;;9.95;8.07;;;7.10;99.90;;;;;;5051306;28;20228;-76
2021/03/26 02:55:14;;;;;;;9.70;6.65;;;7.10;99.90;;;;;;5051698;28;20205;-76
2021/03/26 02:57:44;;;;;;;10.30;6.68;;;7.10;99.90;;;;;;5050999;28;20319;-74
2021/03/26 03:00:19;;;;;;;9.63;6.43;;;7.00;99.90;;;;;;5051132;28;20201;-75
2021/03/26 03:02:48;;;;;;;7.60;6.45;;;6.80;99.90;;;;;;5051369;28;20946;-75
2021/03/26 03:05:19;;;;;;;10.63;6.82;;;6.70;99.90;;;;;;5051458;28;20201;-75
2021/03/26 03:07:59;;;;;;;9.63;7.13;;;6.60;99.90;;;;;;5050874;28;20204;-75
2021/03/26 03:10:31;;;;;;;8.23;6.70;;;6.50;99.90;;;;;;5050824;28;20204;-75
2021/03/26 03:13:10;;;;;;;8.63;7.03;;;6.40;99.90;;;;;;5051162;28;20221;-75
2021/03/26 03:15:42;;;;;;;8.50;6.07;;;6.30;99.90;;;;;;5051047;28;20209;-75
2021/03/26 03:18:20;;;;;;;8.77;7.20;;;6.30;99.90;;;;;;5051212;28;20228;-75
2021/03/26 03:20:53;;;;;;;12.02;7.25;;;6.20;99.90;;;;;;5050442;28;20208;-74
2021/03/26 03:23:24;;;;;;;12.10;7.38;;;6.20;99.90;;;;;;5051481;28;20219;-75
2021/03/26 03:25:55;;;;;;;7.70;6.25;;;6.10;99.90;;;;;;5051163;28;20228;-75
2021/03/26 03:28:28;;;;;;;8.88;7.13;;;6.10;99.90;;;;;;5051304;28;20278;-75
2021/03/26 03:31:03;;;;;;;8.07;6.93;;;6.00;99.90;;;;;;5050071;28;20209;-76
2021/03/26 03:33:34;;;;;;;13.05;6.85;;;5.80;99.90;;;;;;5050687;28;20200;-75
2021/03/26 03:36:03;;;;;;;8.18;6.38;;;5.80;99.90;;;;;;5049708;28;20255;-75
2021/03/26 03:38:51;;;;;;;13.10;8.05;;;5.70;99.90;;;;;;5050699;28;20266;-75
2021/03/26 03:41:23;;;;;;;10.73;6.75;;;5.50;99.90;;;;;;5050787;28;20295;-76
2021/03/26 03:43:57;;;;;;;11.20;7.82;;;5.50;99.90;;;;;;5050432;28;20687;-74
2021/03/26 03:46:28;;;;;;;14.80;7.75;;;5.40;99.90;;;;;;5050973;28;20800;-75
2021/03/26 03:49:02;;;;;;;11.73;7.55;;;5.30;99.90;;;;;;5049953;28;20286;-76
2021/03/26 03:51:37;;;;;;;8.82;6.85;;;5.30;99.90;;;;;;5050482;28;20723;-75
2021/03/26 03:54:08;;;;;;;8.30;6.75;;;5.30;99.90;;;;;;5050542;28;20227;-75
2021/03/26 03:56:40;;;;;;;12.55;6.88;;;5.30;99.90;;;;;;5050207;28;20196;-75
2021/03/26 03:59:11;;;;;;;13.77;7.63;;;5.30;99.90;;;;;;5050278;28;20220;-74
2021/03/26 04:01:43;;;;;;;7.63;6.53;;;5.20;99.90;;;;;;5049843;28;20229;-75
2021/03/26 04:04:15;;;;;;;10.00;6.90;;;5.20;99.90;;;;;;5050401;28;20614;-75
2021/03/26 04:06:48;;;;;;;10.48;7.45;;;5.20;99.90;;;;;;5050007;28;20216;-76
2021/03/26 04:09:18;;;;;;;10.55;8.05;;;5.20;99.90;;;;;;5049702;28;20209;-75
2021/03/26 04:11:49;;;;;;;10.05;7.40;;;5.30;99.90;;;;;;5049806;28;20236;-76
2021/03/26 04:14:20;;;;;;;10.65;7.25;;;5.40;99.90;;;;;;5050593;28;20825;-76
2021/03/26 04:16:54;;;;;;;7.68;6.28;;;5.30;99.90;;;;;;5049704;28;20232;-76
2021/03/26 04:19:25;;;;;;;12.05;7.32;;;5.30;99.90;;;;;;5049745;28;20204;-76
2021/03/26 04:21:55;;;;;;;8.70;6.60;;;5.30;99.90;;;;;;5049517;28;20422;-76
2021/03/26 04:24:28;;;;;;;15.82;8.27;;;5.20;99.90;;;;;;5049909;28;20201;-75
2021/03/26 04:27:02;;;;;;;10.23;7.40;;;5.30;99.90;;;;;;5049760;28;20201;-76
2021/03/26 04:29:34;;;;;;;11.32;7.57;;;5.30;99.90;;;;;;5049377;28;20215;-75
2021/03/26 04:32:04;;;;;;;11.00;8.38;;;5.40;99.90;;;;;;5049935;28;20228;-75
2021/03/26 04:34:31;;;;;;;14.80;8.05;;;5.40;99.90;;;;;;5049303;28;20209;-75
2021/03/26 04:37:04;;;;;;;10.00;7.30;;;5.40;99.90;;;;;;5083500;23;20224;-95
2021/03/26 04:39:35;;;;;;;13.02;8.45;;;5.40;99.90;;;;;;5081750;28;20210;-92
2021/03/26 04:42:09;;;;;;;12.38;8.25;;;5.30;99.90;;;;;;5072961;28;20228;-93
2021/03/26 04:44:42;;;;;;;11.20;7.47;;;5.30;99.90;;;;;;5072454;28;20583;-93
2021/03/26 04:47:18;;;;;;;11.15;7.60;;;5.40;99.90;;;;;;5074399;28;20221;-92
2021/03/26 04:49:50;;;;;;;9.98;8.00;;;5.40;99.90;;;;;;5072927;28;20588;-92
2021/03/26 04:52:22;;;;;;;13.95;8.40;;;5.40;99.90;;;;;;5072053;28;20299;-93
2021/03/26 04:54:54;;;;;;;12.50;9.10;;;5.40;99.90;;;;;;5071746;28;20211;-92
2021/03/26 04:57:24;;;;;;;9.90;7.55;;;5.50;99.90;;;;;;5071355;28;20225;-92
2021/03/26 04:59:57;;;;;;;10.38;8.55;;;5.60;99.90;;;;;;5070942;28;20196;-91
2021/03/26 05:02:24;;;;;;;11.75;8.32;;;5.60;99.90;;;;;;5070871;28;20200;-92
2021/03/26 05:04:55;;;;;;;9.13;8.05;;;5.60;99.90;;;;;;5071182;28;20566;-91
2021/03/26 05:07:26;;;;;;;12.35;8.50;;;5.70;99.90;;;;;;5071246;28;20243;-91
2021/03/26 05:09:55;;;;;;;11.02;8.55;;;5.70;99.90;;;;;;5075252;28;20465;-93
2021/03/26 05:12:26;;;;;;;12.15;8.73;;;5.60;99.90;;;;;;5060921;28;20201;-92
2021/03/26 05:14:58;;;;;;;12.48;8.13;;;5.60;99.90;;;;;;5051711;28;20211;-92
2021/03/26 05:17:28;;;;;;;13.85;8.25;;;5.50;99.90;;;;;;5048433;28;20224;-92
2021/03/26 05:20:02;;;;;;;12.93;7.70;;;5.60;99.90;;;;;;5051720;28;20555;-93
2021/03/26 05:22:44;;;;;;;14.25;7.75;;;5.60;99.90;;;;;;5057358;28;20231;-92
2021/03/26 05:25:21;;;;;;;10.05;8.32;;;5.60;99.90;;;;;;5050920;28;20209;-92
2021/03/26 05:27:51;;;;;;;11.45;7.30;;;5.60;99.90;;;;;;5051769;28;20244;-92
2021/03/26 05:30:26;;;;;;;10.27;6.85;;;5.50;99.90;;;;;;5054038;28;20291;-92
2021/03/26 05:33:00;;;;;;;13.43;8.15;;;5.50;99.90;;;;;;5058917;28;20204;-92
2021/03/26 05:35:30;;;;;;;8.18;7.38;;;5.40;99.90;;;;;;5062678;28;20268;-93
2021/03/26 05:38:04;;;;;;;10.60;7.15;;;5.30;99.90;;;;;;5059992;28;20253;-93
2021/03/26 05:40:56;;;;;;;9.27;7.30;;;5.30;99.90;;;;;;5055434;28;20251;-93
2021/03/26 05:43:39;;;;;;;9.98;8.30;;;5.30;99.90;;;;;;5055024;28;20777;-93
2021/03/26 05:46:15;;;;;;;9.73;7.65;;;5.30;99.90;;;;;;5055303;28;20283;-92
2021/03/26 05:48:51;;;;;;;8.32;6.43;;;5.40;99.90;;;;;;5055852;28;20650;-93
2021/03/26 05:51:39;;;;;;;10.93;6.88;;;5.40;99.90;;;;;;5056830;28;20205;-93
2021/03/26 05:54:21;;;;;;;10.35;8.32;;;5.50;99.90;;;;;;5057102;28;20205;-92
2021/03/26 05:57:01;;;;;;;11.20;8.20;;;5.50;99.90;;;;;;5068431;28;20233;-92
2021/03/26 05:59:37;;;;;;;10.85;8.38;;;5.60;99.90;;;;;;5070600;28;20253;-93
2021/03/26 06:02:31;;;;;;;9.35;8.35;;;5.60;99.90;;;;;;5060979;28;20606;-92
2021/03/26 06:05:24;;;;;;;13.95;9.70;;;5.70;99.90;;;;;;5059145;28;20319;-92
2021/03/26 06:08:06;;;;;;;11.25;8.75;;;5.80;99.90;;;;;;5059335;28;20221;-92
2021/03/26 06:10:51;;;;;;;10.77;7.80;;;5.80;99.90;;;;;;5057615;28;20205;-93
2021/03/26 06:13:45;;;;;;;12.02;8.32;;;5.80;99.90;;;;;;5058333;28;20319;-93
2021/03/26 06:16:31;;;;;;;11.68;7.95;;;5.90;99.90;;;;;;5057232;28;20666;-92
2021/03/26 06:19:23;;;;;;;13.30;9.95;;;6.00;99.90;;;;;;5056932;28;20272;-94
2021/03/26 06:22:09;;;;;;;11.80;9.55;;;6.10;99.90;;;;;;5056801;28;20216;-93
2021/03/26 06:25:16;;;;;;;12.60;10.00;;;6.30;99.90;;;;;;5061395;28;20204;-93
2021/03/26 06:27:53;;;;;;;12.68;9.50;;;6.50;99.90;;;;;;5077576;28;20220;-94
2021/03/26 06:30:32;;;;;;;12.25;9.07;;;6.70;99.90;;;;;;5058381;28;20240;-91
2021/03/26 06:33:34;;;;;;;13.85;8.85;;;6.90;99.90;;;;;;5056227;28;20244;-94
2021/03/26 06:36:29;;;;;;;12.57;8.95;;;7.10;99.90;;;;;;5037679;28;20196;-93
2021/03/26 06:39:30;;;;;;;15.73;11.02;;;7.30;99.90;;;;;;5053602;28;20227;-93
2021/03/26 06:42:34;;;;;;;14.73;10.70;;;7.50;99.90;;;;;;5054383;28;20262;-93
2021/03/26 06:45:19;;;;;;;16.25;10.32;;;7.70;99.90;;;;;;5067703;28;20287;-93
2021/03/26 06:48:03;;;;;;;12.60;10.77;;;7.80;99.90;;;;;;5074268;28;20228;-93
2021/03/26 06:51:15;;;;;;;11.65;9.93;;;8.00;99.90;;;;;;5073036;28;20204;-92
2021/03/26 06:53:51;;;;;;;13.48;10.63;;;8.20;99.90;;;;;;5056298;28;20231;-92
2021/03/26 06:56:43;;;;;;;10.63;8.77;;;8.30;99.90;;;;;;5075817;28;20275;-93
2021/03/26 06:59:40;;;;;;;11.48;8.40;;;8.30;99.90;;;;;;5074037;28;20673;-92
2021/03/26 07:02:44;;;;;;;12.50;9.80;;;8.30;99.90;;;;;;5075635;28;20299;-93
2021/03/26 07:05:26;;;;;;;12.30;8.50;;;8.30;99.90;;;;;;5077609;28;20606;-94
2021/03/26 07:08:14;;;;;;;12.95;9.80;;;8.50;99.90;;;;;;5078086;28;20224;-93
2021/03/26 07:10:55;;;;;;;12.73;9.27;;;8.60;99.90;;;;;;5074811;28;20216;-94
2021/03/26 07:14:03;;;;;;;11.05;8.57;;;8.60;99.90;;;;;;5075522;28;20204;-94
2021/03/26 07:17:20;;;;;;;13.35;9.80;;;8.70;99.90;;;;;;5079511;28;20292;-94
2021/03/26 07:20:14;;;;;;;13.20;9.05;;;9.00;99.90;;;;;;5076435;28;20210;-94
2021/03/26 07:23:24;;;;;;;11.98;8.55;;;9.30;99.90;;;;;;5078319;28;20276;-94
2021/03/26 07:26:14;;;;;;;11.48;7.70;;;9.70;99.90;;;;;;5079472;28;20333;-93
2021/03/26 07:32:33;;;;;;;9.43;8.05;;;10.40;99.90;;;;;;5019688;28;20210;-94
2021/03/26 07:35:35;;;;;;;10.30;8.27;;;10.70;99.90;;;;;;5075080;28;20196;-93
2021/03/26 07:41:53;;;;;;;12.00;9.23;;;11.20;99.90;;;;;;5073631;28;20204;-93
2021/03/26 07:44:58;;;;;;;12.43;7.80;;;11.60;99.90;;;;;;5075055;28;20295;-93
2021/03/26 07:47:56;;;;;;;12.73;8.18;;;12.40;99.90;;;;;;5076261;28;20224;-93
2021/03/26 07:54:14;;;;;;;9.50;8.03;;;13.10;99.40;;;;;;5076144;28;20673;-94
2021/03/26 08:00:20;;;;;;;9.63;7.90;;;14.60;97.80;;;;;;5075684;28;20454;-93
2021/03/26 08:03:31;;;;;;;12.93;7.73;;;15.40;96.20;;;;;;5076157;28;21065;-95
2021/03/26 08:06:27;;;;;;;9.03;7.57;;;16.20;94.90;;;;;;5057982;28;20528;-93
2021/03/26 08:09:28;;;;;;;8.30;7.33;;;16.90;93.60;;;;;;5076381;28;20553;-93
2021/03/26 08:12:15;;;;;;;8.93;7.70;;;17.20;91.70;;;;;;5065220;28;20450;-93
2021/03/26 08:18:24;;;;;;;8.20;7.10;;;16.80;90.90;;;;;;5063745;28;20493;-93
2021/03/26 08:21:14;;;;;;;9.67;7.90;;;16.90;91.90;;;;;;5076283;28;20484;-94
2021/03/26 08:24:08;;;;;;;9.20;7.50;;;17.00;90.60;;;;;;5073972;28;20454;-94
2021/03/26 08:27:03;;;;;;;8.60;6.90;;;17.20;90.30;;;;;;5074535;28;20478;-94
2021/03/26 08:29:42;;;;;;;10.93;7.60;;;17.40;90.10;;;;;;5073978;28;20458;-94
2021/03/26 08:32:53;;;;;;;8.70;7.30;;;17.80;90.20;;;;;;5074707;28;20969;-93
2021/03/26 08:35:44;;;;;;;8.80;8.00;;;18.30;86.80;;;;;;5076677;28;20463;-92
2021/03/26 08:38:41;;;;;;;10.20;7.00;;;18.50;84.80;;;;;;5074270;28;20999;-92
2021/03/26 08:41:15;;;;;;;11.00;6.77;;;19.20;85.20;;;;;;5079610;28;20494;-92
2021/03/26 08:43:48;;;;;;;7.87;7.07;;;19.60;81.90;;;;;;5077739;28;20458;-92
2021/03/26 08:46:20;;;;;;;8.10;6.60;;;20.20;81.70;;;;;;5074456;28;20553;-92
2021/03/26 08:48:54;;;;;;;12.10;7.33;;;20.70;81.10;;;;;;5074853;28;21090;-92
2021/03/26 08:52:01;;;;;;;8.80;6.97;;;21.30;81.50;;;;;;5072056;28;20930;-92
2021/03/26 08:54:43;;;;;;;12.70;7.87;;;21.60;77.10;;;;;;5072189;28;20458;-92
2021/03/26 08:57:18;;;;;;;7.90;7.10;;;21.80;77.50;;;;;;5072977;28;20478;-92
2021/03/26 09:00:04;;;;;;;9.33;8.30;;;22.30;78.80;;;;;;5074715;28;20454;-92
2021/03/26 09:02:53;;;;;;;9.47;7.97;;;22.90;73.70;;;;;;5078945;28;20527;-92
2021/03/26 09:05:48;;;;;;;11.07;8.30;;;22.80;72.10;;;;;;5076090;28;20489;-93
2021/03/26 09:08:28;;;;;;;9.97;7.73;;;23.10;72.20;;;;;;5066204;28;20486;-92
2021/03/26 09:11:28;;;;;;;8.50;7.37;;;22.50;70.90;;;;;;5073025;28;20466;-92
2021/03/26 09:14:20;;;;;;;9.13;7.40;;;22.20;72.80;;;;;;5072439;28;21081;-92
2021/03/26 09:16:54;;;;;;;10.37;9.20;;;22.70;72.80;;;;;;5081591;22;20892;-69
2021/03/26 09:19:29;;;;;;;11.07;9.57;;;22.50;69.90;;;;;;5067975;28;20450;-69
2021/03/26 09:22:01;;;;;;;9.00;8.20;;;21.00;71.60;;;;;;5069261;28;20477;-69
2021/03/26 09:24:46;;;;;;;8.60;7.70;;;20.00;73.40;;;;;;5069000;28;20458;-69
2021/03/26 09:27:23;;;;;;;12.17;8.90;;;20.50;73.50;;;;;;5069095;28;20493;-69
2021/03/26 09:30:00;;;;;;;11.10;8.30;;;21.20;72.40;;;;;;5067632;28;20462;-70
2021/03/26 09:32:31;;;;;;;11.77;9.30;;;21.30;72.70;;;;;;5068387;28;20478;-69
2021/03/26 09:35:08;;;;;;;11.77;7.80;;;21.10;71.90;;;;;;5072121;28;20574;-69
2021/03/26 09:37:43;;;;;;;9.93;7.63;;;21.70;70.70;;;;;;5072641;28;20553;-69
2021/03/26 09:40:28;;;;;;;8.37;7.57;;;22.00;72.90;;;;;;5072021;28;20815;-69
2021/03/26 09:43:03;;;;;;;8.43;7.20;;;22.90;71.80;;;;;;5072831;28;20478;-70
2021/03/26 09:45:36;;;;;;;10.13;7.90;;;23.40;70.40;;;;;;5072383;28;20990;-70
2021/03/26 09:48:22;;;;;;;15.83;7.33;;;23.80;68.70;;;;;;5072692;28;20482;-69
2021/03/26 09:50:59;;;;;;;10.83;7.90;;;24.30;68.50;;;;;;5072246;28;20705;-68
2021/03/26 09:53:27;;;;;;;10.43;8.17;;;24.10;67.30;;;;;;5072829;28;20462;-68
2021/03/26 09:56:05;;;;;;;10.03;8.40;;;24.20;66.40;;;;;;5072251;28;20458;-68
2021/03/26 09:58:39;;;;;;;9.20;8.30;;;24.70;68.00;;;;;;5072140;28;20458;-68
2021/03/26 10:01:10;;;;;;;10.30;8.00;;;25.30;67.80;;;;;;5072003;28;20473;-68
2021/03/26 10:03:49;;;;;;;10.47;8.30;;;24.90;65.00;;;;;;5072211;28;20466;-68
2021/03/26 10:06:29;;;;;;;8.73;7.23;;;24.40;66.00;;;;;;5072116;28;20491;-68
2021/03/26 10:09:08;;;;;;;8.47;6.63;;;24.60;66.20;;;;;;5071783;28;20482;-68
2021/03/26 10:11:52;;;;;;;10.67;7.97;;;25.80;65.80;;;;;;5071893;28;20479;-69
2021/03/26 10:14:23;;;;;;;13.13;7.80;;;25.90;63.30;;;;;;5071977;28;20470;-69
2021/03/26 10:16:53;;;;;;;8.23;7.40;;;26.10;64.50;;;;;;5071977;28;20470;-68
2021/03/26 10:19:27;;;;;;;10.10;7.47;;;24.30;63.80;;;;;;5071200;28;20461;-68
2021/03/26 10:21:56;;;;;;;7.80;7.00;;;22.60;66.30;;;;;;5072196;28;20573;-69
2021/03/26 10:24:28;;;;;;;8.87;7.33;;;22.70;68.40;;;;;;5071628;28;20458;-69
2021/03/26 10:27:04;;;;;;;8.30;7.00;;;23.60;66.50;;;;;;5072241;28;20454;-69
2021/03/26 10:29:40;;;;;;;7.50;6.37;;;23.90;64.80;;;;;;5070860;28;20446;-69
2021/03/26 10:32:10;;;;;;;8.20;6.90;;;24.70;63.90;;;;;;5071502;28;20482;-69
2021/03/26 10:34:42;;;;;;;9.30;7.17;;;24.40;62.90;;;;;;5071265;28;20458;-69
2021/03/26 10:39:47;;;;;;;7.97;6.47;;;24.40;65.40;;;;;;5140143;22;20615;-74
2021/03/26 10:42:46;;;;;;;7.40;6.00;;;25.80;62.00;;;;;;5091751;28;20477;-74
2021/03/26 10:45:25;;;;;;;6.60;5.77;;;26.50;59.80;;;;;;5090920;28;20457;-73
2021/03/26 10:47:57;;;;;;;6.10;5.50;;;26.00;60.70;;;;;;5091658;28;20720;-73
2021/03/26 10:51:07;;;;;;;8.07;6.20;;;26.60;59.20;;;;;;5090745;28;20476;-73
2021/03/26 10:53:37;;;;;;;10.67;7.27;;;26.70;59.10;;;;;;5091195;28;20832;-73
2021/03/26 10:56:11;;;;;;;8.43;6.33;;;26.40;59.00;;;;;;5091033;28;20968;-73
2021/03/26 10:58:40;;;;;;;6.77;5.07;;;26.50;57.70;;;;;;5090641;28;20451;-73
2021/03/26 11:01:12;;;;;;;7.27;5.53;;;25.70;57.30;;;;;;5090986;28;20485;-74
2021/03/26 11:03:45;;;;;;;5.50;4.80;;;24.20;58.80;;;;;;5091129;28;20461;-73
2021/03/26 11:06:30;;;;;;;6.47;5.17;;;24.40;59.10;;;;;;5091148;28;20460;-73
2021/03/26 11:09:02;;;;;;;5.57;5.07;;;25.20;58.70;;;;;;5090513;28;20581;-73
2021/03/26 11:11:39;;;;;;;6.73;4.87;;;24.00;59.00;;;;;;5090783;28;20492;-73
2021/03/26 11:14:31;;;;;;;5.73;5.00;;;24.00;59.60;;;;;;5090611;28;20971;-73
2021/03/26 11:17:18;;;;;;;5.67;4.67;;;24.50;59.00;;;;;;5090409;28;20461;-73
2021/03/26 11:19:59;;;;;;;4.67;4.23;;;25.70;59.10;;;;;;5090470;28;20454;-73
2021/03/26 11:22:29;;;;;;;7.50;4.47;;;25.80;56.40;;;;;;5090598;28;20877;-74
2021/03/26 11:25:02;;;;;;;6.37;4.33;;;25.30;57.50;;;;;;5090676;28;20462;-73
2021/03/26 11:27:35;;;;;;;5.23;4.80;;;23.80;58.40;;;;;;5090342;28;20532;-74
2021/03/26 11:30:22;;;;;;;6.47;5.50;;;22.80;59.60;;;;;;5089881;28;20464;-73
2021/03/26 11:32:55;;;;;;;7.20;5.63;;;23.50;60.30;;;;;;5090163;28;20709;-73
2021/03/26 11:35:24;;;;;;;10.43;5.50;;;24.20;59.00;;;;;;5090450;28;20515;-74
2021/03/26 11:37:56;;;;;;;5.50;4.93;;;24.20;59.40;;;;;;5089943;28;20473;-73
2021/03/26 11:40:27;;;;;;;6.30;5.70;;;25.00;60.00;;;;;;5090283;28;20454;-73
2021/03/26 11:42:55;;;;;;;7.37;6.00;;;26.30;58.00;;;;;;5090261;28;20483;-74
2021/03/26 11:45:29;;;;;;;7.83;6.80;;;27.10;57.80;;;;;;5090042;28;20466;-74
2021/03/26 11:48:11;;;;;;;10.47;7.00;;;27.10;56.10;;;;;;5090172;28;20481;-73
2021/03/26 11:50:40;;;;;;;7.57;6.80;;;25.30;57.90;;;;;;5089369;28;20464;-74
2021/03/26 11:53:27;;;;;;;10.63;6.70;;;24.70;58.90;;;;;;5090266;28;20481;-74
2021/03/26 11:56:24;;;;;;;7.60;6.30;;;24.60;60.20;;;;;;5089990;28;20460;-73
2021/03/26 11:59:00;;;;;;;7.10;6.10;;;25.10;59.30;;;;;;5088985;28;20458;-73
2021/03/26 12:01:33;;;;;;;7.87;6.37;;;25.40;58.80;;;;;;5089976;28;20473;-73
2021/03/26 12:04:07;;;;;;;8.50;6.30;;;25.50;59.00;;;;;;5090255;28;20534;-74
2021/03/26 12:06:40;;;;;;;7.50;6.17;;;25.40;58.50;;;;;;5089887;28;20468;-74
2021/03/26 12:09:15;;;;;;;7.00;6.30;;;25.00;60.00;;;;;;5089489;28;20520;-74
2021/03/26 12:11:58;;;;;;;6.40;5.80;;;24.40;60.00;;;;;;5089820;28;20500;-73
2021/03/26 12:14:29;;;;;;;6.90;6.07;;;24.70;59.00;;;;;;5089941;28;20965;-73
2021/03/26 12:17:01;;;;;;;6.77;5.80;;;24.00;60.00;;;;;;5089636;28;20461;-73
2021/03/26 12:19:29;;;;;;;7.47;6.10;;;23.50;61.30;;;;;;5089249;28;20450;-74
2021/03/26 12:22:03;;;;;;;8.00;6.13;;;24.20;61.40;;;;;;5089580;28;20483;-74
2021/03/26 12:24:37;;;;;;;6.13;5.50;;;25.20;60.10;;;;;;5089825;28;20465;-74
2021/03/26 12:27:22;;;;;;;6.13;5.10;;;26.10;59.10;;;;;;5089694;28;20835;-74
2021/03/26 12:29:51;;;;;;;5.40;4.60;;;27.30;58.10;;;;;;5089141;28;20699;-74
2021/03/26 12:32:30;;;;;;;6.20;4.67;;;27.60;55.60;;;;;;5089348;28;20845;-74
2021/03/26 12:35:04;;;;;;;5.73;4.07;;;27.80;53.70;;;;;;5089404;28;20454;-73
2021/03/26 12:37:45;;;;;;;5.07;3.90;;;27.90;54.40;;;;;;5089128;28;20492;-73
2021/03/26 12:40:26;;;;;;;3.93;3.50;;;27.30;52.50;;;;;;5089044;28;20469;-73
2021/03/26 12:42:58;;;;;;;5.40;4.00;;;25.70;55.90;;;;;;5088641;28;20477;-74
2021/03/26 12:45:30;;;;;;;6.23;4.10;;;25.20;55.40;;;;;;5089150;28;20453;-74
2021/03/26 12:48:05;;;;;;;4.23;3.50;;;25.40;55.20;;;;;;5089400;28;20489;-74
2021/03/26 12:50:35;;;;;;;5.33;4.27;;;24.60;55.30;;;;;;5088665;28;20461;-74
2021/03/26 12:53:08;;;;;;;5.17;4.67;;;24.50;57.60;;;;;;5089161;28;21000;-73
2021/03/26 12:55:43;;;;;;;6.10;5.10;;;24.80;54.80;;;;;;5088810;28;20553;-73
2021/03/26 12:58:34;;;;;;;5.03;3.97;;;23.40;54.80;;;;;;5089301;28;20457;-73
2021/03/26 13:01:09;;;;;;;4.40;4.00;;;22.80;57.80;;;;;;5071437;28;20466;-73
2021/03/26 13:03:38;;;;;;;6.53;4.83;;;24.10;57.70;;;;;;5088967;28;20454;-73
2021/03/26 13:06:11;;;;;;;5.47;4.70;;;24.70;56.30;;;;;;5088920;28;20489;-73
2021/03/26 13:08:43;;;;;;;6.80;4.90;;;25.60;55.20;;;;;;5088074;28;20509;-73
2021/03/26 13:11:17;;;;;;;5.20;4.30;;;25.80;54.80;;;;;;5088975;28;20841;-74
2021/03/26 13:14:00;;;;;;;5.87;5.23;;;25.50;55.20;;;;;;5088786;28;20472;-73
2021/03/26 13:16:45;;;;;;;4.80;4.27;;;25.40;55.10;;;;;;5088748;28;20460;-73
2021/03/26 13:19:24;;;;;;;7.97;5.30;;;24.50;56.70;;;;;;5088771;28;20451;-73
2021/03/26 13:22:06;;;;;;;6.07;5.07;;;23.80;57.10;;;;;;5088834;28;20473;-73
2021/03/26 13:24:39;;;;;;;6.57;5.20;;;23.50;58.20;;;;;;5089235;28;20458;-73
2021/03/26 13:27:38;;;;;;;5.33;4.80;;;23.90;58.90;;;;;;5089088;28;20483;-74
2021/03/26 13:30:32;;;;;;;7.90;4.53;;;24.50;57.80;;;;;;5088579;28;20461;-73
2021/03/26 13:33:20;;;;;;;5.17;4.27;;;24.60;57.50;;;;;;5082077;28;20480;-74
2021/03/26 13:36:06;;;;;;;6.77;5.13;;;24.60;56.60;;;;;;5089689;28;20843;-74
2021/03/26 13:38:57;;;;;;;6.13;4.37;;;23.10;57.40;;;;;;5088772;28;20489;-73
2021/03/26 13:41:33;;;;;;;5.07;4.67;;;22.10;58.90;;;;;;5089509;28;21016;-73
2021/03/26 13:44:32;;;;;;;4.63;4.13;;;21.70;59.30;;;;;;5089046;28;20825;-73
2021/03/26 13:47:06;;;;;;;5.07;4.60;;;20.90;60.20;;;;;;5089295;28;20953;-73
2021/03/26 13:49:34;;;;;;;5.83;4.57;;;19.90;61.20;;;;;;5088221;28;20496;-73
2021/03/26 13:52:09;;;;;;;4.60;3.60;;;19.60;61.80;;;;;;5089468;28;20483;-73
2021/03/26 13:54:39;;;;;;;5.50;3.43;;;19.40;61.70;;;;;;5089139;28;20491;-73
2021/03/26 13:57:17;;;;;;;4.30;3.63;;;19.70;62.90;;;;;;5089588;28;20449;-73
2021/03/26 13:59:49;;;;;;;7.13;3.10;;;20.10;62.40;;;;;;5088141;28;20460;-73